Time;durP1;ratioP1;P1;durP2;ratioP2;P2;SDS_P1;SDS_P2;PMS_P1;PMS_P2;Temp;Humidity;BMP_temperature;BMP_pressure;BME280_temperature;BME280_humidity;BME280_pressure;Samples;Min_cycle;Max_cycle;Signal;HPM_P1;HPM_P2
2023/08/10 00:01:59;;;;;;;6.18;2.58;;;;;;;;;;5087450;28;20020;-81
2023/08/10 00:04:25;;;;;;;6.82;3.08;;;;;;;;;;5058159;28;20036;-81
2023/08/10 00:06:50;;;;;;;5.93;2.30;;;;;;;;;;5069775;28;20017;-81
2023/08/10 00:09:16;;;;;;;4.70;2.58;;;;;;;;;;5058343;28;20070;-80
2023/08/10 00:11:41;;;;;;;5.28;2.65;;;;;;;;;;5085340;28;20028;-80
2023/08/10 00:14:07;;;;;;;6.85;2.85;;;;;;;;;;5081964;28;20056;-80
2023/08/10 00:16:33;;;;;;;5.50;2.53;;;;;;;;;;5061200;28;20078;-80
2023/08/10 00:19:00;;;;;;;6.00;2.88;;;;;;;;;;5093484;28;20036;-82
2023/08/10 00:21:26;;;;;;;4.82;2.67;;;;;;;;;;5077641;28;20111;-80
2023/08/10 00:23:51;;;;;;;4.88;2.58;;;;;;;;;;5054513;28;20476;-82
2023/08/10 00:26:17;;;;;;;7.13;2.50;;;;;;;;;;5082043;28;20498;-80
2023/08/10 00:28:43;;;;;;;3.72;2.60;;;;;;;;;;5074598;28;20487;-80
2023/08/10 00:31:08;;;;;;;4.28;2.92;;;;;;;;;;5053141;28;20021;-80
2023/08/10 00:33:34;;;;;;;10.27;2.75;;;;;;;;;;5075529;28;20035;-81
2023/08/10 00:36:08;;;;;;;6.68;2.50;;;;;;;;;;5069882;28;20161;-80
2023/08/10 00:38:34;;;;;;;6.38;2.55;;;;;;;;;;5066690;28;20065;-81
2023/08/10 00:41:00;;;;;;;6.72;2.47;;;;;;;;;;5061834;28;20500;-80
2023/08/10 00:43:26;;;;;;;7.45;2.90;;;;;;;;;;5063534;28;20044;-81
2023/08/10 00:45:51;;;;;;;4.65;2.58;;;;;;;;;;5069864;28;20035;-81
2023/08/10 00:48:17;;;;;;;6.95;2.75;;;;;;;;;;5093099;28;20043;-81
2023/08/10 00:50:42;;;;;;;4.63;2.80;;;;;;;;;;5071752;28;20012;-81
2023/08/10 00:53:08;;;;;;;3.83;2.50;;;;;;;;;;5091308;28;20434;-80
2023/08/10 00:55:33;;;;;;;3.72;2.55;;;;;;;;;;5076602;28;20024;-81
2023/08/10 00:57:59;;;;;;;6.70;2.67;;;;;;;;;;5073818;28;20036;-81
2023/08/10 01:00:24;;;;;;;5.97;2.80;;;;;;;;;;5073237;28;20031;-82
2023/08/10 01:02:50;;;;;;;5.20;2.80;;;;;;;;;;5081867;28;20032;-82
2023/08/10 01:05:15;;;;;;;4.00;2.70;;;;;;;;;;5087183;28;20024;-80
2023/08/10 01:07:52;;;;;;;5.45;3.05;;;;;;;;;;5081457;28;20089;-80
2023/08/10 01:10:18;;;;;;;6.35;2.90;;;;;;;;;;5069982;28;20043;-80
2023/08/10 01:12:51;;;;;;;6.82;3.35;;;;;;;;;;5065315;28;20534;-80
2023/08/10 01:15:42;;;;;;;5.10;2.90;;;;;;;;;;5067222;28;20089;-80
2023/08/10 01:18:08;;;;;;;4.38;2.90;;;;;;;;;;5073948;28;20040;-80
2023/08/10 01:20:34;;;;;;;7.95;3.25;;;;;;;;;;5054080;28;20085;-79
2023/08/10 01:23:05;;;;;;;5.85;3.30;;;;;;;;;;5069152;28;20494;-80
2023/08/10 01:25:31;;;;;;;5.93;3.00;;;;;;;;;;5088400;28;20402;-80
2023/08/10 01:27:56;;;;;;;6.43;3.25;;;;;;;;;;5075758;28;20029;-80
2023/08/10 01:30:22;;;;;;;5.32;3.00;;;;;;;;;;5064133;28;20036;-81
2023/08/10 01:32:50;;;;;;;5.65;2.88;;;;;;;;;;5042237;28;20155;-81
2023/08/10 01:35:16;;;;;;;6.70;3.28;;;;;;;;;;5076039;28;20090;-81
2023/08/10 01:37:41;;;;;;;7.00;3.40;;;;;;;;;;5074240;28;20048;-81
2023/08/10 01:40:12;;;;;;;4.80;3.22;;;;;;;;;;5076078;28;20525;-81
2023/08/10 01:42:39;;;;;;;8.57;3.25;;;;;;;;;;5062683;28;20035;-81
2023/08/10 01:45:05;;;;;;;11.00;3.72;;;;;;;;;;5093125;28;20028;-82
2023/08/10 01:47:39;;;;;;;8.18;3.15;;;;;;;;;;5072946;28;20527;-79
2023/08/10 01:50:06;;;;;;;7.30;3.17;;;;;;;;;;5081253;28;20036;-80
2023/08/10 01:52:33;;;;;;;5.35;2.90;;;;;;;;;;5056261;28;20020;-80
2023/08/10 01:54:59;;;;;;;5.18;3.50;;;;;;;;;;5056436;28;20043;-80
2023/08/10 01:57:24;;;;;;;4.97;3.08;;;;;;;;;;5060463;28;20023;-80
2023/08/10 01:59:50;;;;;;;7.35;3.20;;;;;;;;;;5064222;28;20033;-80
2023/08/10 02:02:15;;;;;;;6.00;3.08;;;;;;;;;;5072168;28;20021;-80
2023/08/10 02:04:41;;;;;;;6.28;3.10;;;;;;;;;;5067357;28;20048;-80
2023/08/10 02:07:06;;;;;;;6.43;3.45;;;;;;;;;;5079019;28;20111;-80
2023/08/10 02:09:32;;;;;;;7.22;3.03;;;;;;;;;;5074677;28;20123;-80
2023/08/10 02:11:57;;;;;;;5.00;3.33;;;;;;;;;;5053834;28;20020;-80
2023/08/10 02:14:23;;;;;;;6.15;2.80;;;;;;;;;;5064189;28;20103;-81
2023/08/10 02:16:48;;;;;;;5.47;2.67;;;;;;;;;;5073410;28;20119;-81
2023/08/10 02:19:14;;;;;;;5.38;2.80;;;;;;;;;;5083274;28;20028;-80
2023/08/10 02:21:39;;;;;;;5.68;3.00;;;;;;;;;;5057444;28;20056;-80
2023/08/10 02:24:05;;;;;;;5.47;3.13;;;;;;;;;;5072482;28;20028;-80
2023/08/10 02:26:30;;;;;;;5.00;3.20;;;;;;;;;;5088996;28;20043;-80
2023/08/10 02:28:56;;;;;;;7.40;3.45;;;;;;;;;;5064045;28;20035;-80
2023/08/10 02:31:22;;;;;;;8.15;3.08;;;;;;;;;;5054312;28;20020;-80
2023/08/10 02:33:49;;;;;;;8.50;3.13;;;;;;;;;;5083719;28;20039;-81
2023/08/10 02:36:15;;;;;;;3.90;2.83;;;;;;;;;;5078409;28;20024;-81
2023/08/10 02:38:40;;;;;;;5.43;3.17;;;;;;;;;;5074328;28;20055;-81
2023/08/10 02:41:06;;;;;;;5.03;2.67;;;;;;;;;;5090684;28;20023;-80
2023/08/10 02:43:31;;;;;;;4.85;3.33;;;;;;;;;;5073907;28;20387;-80
2023/08/10 02:45:57;;;;;;;6.18;3.53;;;;;;;;;;5084883;28;20028;-80
2023/08/10 02:48:22;;;;;;;3.92;2.80;;;;;;;;;;5081745;28;20445;-80
2023/08/10 02:50:48;;;;;;;7.25;2.83;;;;;;;;;;5075112;28;20048;-81
2023/08/10 02:53:13;;;;;;;5.78;3.30;;;;;;;;;;5064119;28;20032;-80
2023/08/10 02:55:39;;;;;;;5.18;3.20;;;;;;;;;;5085400;28;20043;-80
2023/08/10 02:58:04;;;;;;;6.10;3.30;;;;;;;;;;5073136;28;20041;-81
2023/08/10 03:00:30;;;;;;;7.20;3.75;;;;;;;;;;5072827;28;20027;-81
2023/08/10 03:02:55;;;;;;;4.70;3.30;;;;;;;;;;5071788;28;20485;-80
2023/08/10 03:05:21;;;;;;;4.72;2.75;;;;;;;;;;5084977;28;20497;-80
2023/08/10 03:07:46;;;;;;;5.30;3.03;;;;;;;;;;5080859;28;20028;-80
2023/08/10 03:10:13;;;;;;;7.60;3.60;;;;;;;;;;5063628;28;20021;-79
2023/08/10 03:12:39;;;;;;;9.23;4.05;;;;;;;;;;5071238;28;20066;-81
2023/08/10 03:15:09;;;;;;;6.55;3.10;;;;;;;;;;5065609;28;20033;-81
2023/08/10 03:17:36;;;;;;;6.35;3.13;;;;;;;;;;5063708;28;20033;-82
2023/08/10 03:20:06;;;;;;;6.68;3.13;;;;;;;;;;5055768;28;20013;-81
2023/08/10 03:22:33;;;;;;;4.45;3.10;;;;;;;;;;5071272;28;20047;-80
2023/08/10 03:24:58;;;;;;;8.27;3.47;;;;;;;;;;5055522;28;20033;-80
2023/08/10 03:27:24;;;;;;;6.68;3.17;;;;;;;;;;5063221;28;20055;-81
2023/08/10 03:29:49;;;;;;;6.57;2.95;;;;;;;;;;5064432;28;20191;-80
2023/08/10 03:32:15;;;;;;;8.00;3.10;;;;;;;;;;5051151;28;20033;-80
2023/08/10 03:34:40;;;;;;;5.15;2.90;;;;;;;;;;5081731;28;20438;-80
2023/08/10 03:37:06;;;;;;;4.97;2.70;;;;;;;;;;5079993;28;20042;-82
2023/08/10 03:39:32;;;;;;;7.93;3.50;;;;;;;;;;5065740;28;20059;-81
2023/08/10 03:41:58;;;;;;;8.23;3.30;;;;;;;;;;5079801;28;20071;-81
2023/08/10 03:44:23;;;;;;;6.78;3.15;;;;;;;;;;5045767;28;20059;-81
2023/08/10 03:46:53;;;;;;;5.30;3.03;;;;;;;;;;5071429;28;20488;-81
2023/08/10 03:49:19;;;;;;;7.70;3.15;;;;;;;;;;5046582;28;20017;-81
2023/08/10 03:51:45;;;;;;;6.38;3.15;;;;;;;;;;5086091;28;20055;-81
2023/08/10 03:54:10;;;;;;;6.90;3.35;;;;;;;;;;5063538;28;20028;-81
2023/08/10 03:56:37;;;;;;;7.47;3.42;;;;;;;;;;5060410;28;20035;-81
2023/08/10 03:59:04;;;;;;;5.15;2.60;;;;;;;;;;5046081;28;20399;-82
2023/08/10 04:01:30;;;;;;;6.82;3.00;;;;;;;;;;5076153;28;20038;-81
2023/08/10 04:03:56;;;;;;;5.28;2.80;;;;;;;;;;5072680;28;20111;-81
2023/08/10 04:06:22;;;;;;;5.75;2.70;;;;;;;;;;5080311;28;20100;-81
2023/08/10 04:08:48;;;;;;;6.15;3.55;;;;;;;;;;5071279;28;20028;-82
2023/08/10 04:11:14;;;;;;;6.22;3.25;;;;;;;;;;5059000;28;20391;-81
2023/08/10 04:13:39;;;;;;;8.73;4.05;;;;;;;;;;5056203;28;20095;-81
2023/08/10 04:16:05;;;;;;;4.43;3.13;;;;;;;;;;5074436;28;20051;-82
2023/08/10 04:18:30;;;;;;;7.93;2.88;;;;;;;;;;5037692;28;20123;-81
2023/08/10 04:20:56;;;;;;;5.10;2.63;;;;;;;;;;5070835;28;20036;-81
2023/08/10 04:23:21;;;;;;;6.22;3.00;;;;;;;;;;5070443;28;20020;-81
2023/08/10 04:25:47;;;;;;;5.90;2.80;;;;;;;;;;5075054;28;20052;-82
2023/08/10 04:28:12;;;;;;;4.90;2.88;;;;;;;;;;5071083;28;20035;-81
2023/08/10 04:30:38;;;;;;;4.68;2.72;;;;;;;;;;5071945;28;20035;-80
2023/08/10 04:33:03;;;;;;;7.25;3.20;;;;;;;;;;5073287;28;20023;-81
2023/08/10 04:35:29;;;;;;;5.55;2.60;;;;;;;;;;5092014;28;20129;-81
2023/08/10 04:37:54;;;;;;;5.60;2.65;;;;;;;;;;5063945;28;20459;-80
2023/08/10 04:40:20;;;;;;;7.00;3.00;;;;;;;;;;5074246;28;20040;-81
2023/08/10 04:42:46;;;;;;;4.78;2.70;;;;;;;;;;5075220;28;20032;-81
2023/08/10 04:45:11;;;;;;;5.10;2.70;;;;;;;;;;5076070;28;20063;-81
2023/08/10 04:47:37;;;;;;;9.85;3.20;;;;;;;;;;5074433;28;20063;-79
2023/08/10 04:50:03;;;;;;;8.63;2.50;;;;;;;;;;5075364;28;20087;-81
2023/08/10 04:52:28;;;;;;;4.75;2.92;;;;;;;;;;5057291;28;20025;-80
2023/08/10 04:54:54;;;;;;;10.25;3.42;;;;;;;;;;5073989;28;20036;-80
2023/08/10 04:57:19;;;;;;;13.43;4.40;;;;;;;;;;5063079;28;20491;-80
2023/08/10 04:59:45;;;;;;;12.60;3.72;;;;;;;;;;5075666;28;20403;-81
2023/08/10 05:02:10;;;;;;;7.10;3.72;;;;;;;;;;5074818;28;20029;-79
2023/08/10 05:04:36;;;;;;;6.88;2.95;;;;;;;;;;5075759;28;20060;-80
2023/08/10 05:07:01;;;;;;;11.82;3.75;;;;;;;;;;5075685;28;20105;-82
2023/08/10 05:09:27;;;;;;;11.02;3.90;;;;;;;;;;5073597;28;20085;-82
2023/08/10 05:11:52;;;;;;;12.90;3.97;;;;;;;;;;5056877;28;20028;-83
2023/08/10 05:14:18;;;;;;;8.35;3.63;;;;;;;;;;5073411;28;20053;-80
2023/08/10 05:16:43;;;;;;;14.13;3.97;;;;;;;;;;5061211;28;20044;-81
2023/08/10 05:19:09;;;;;;;11.73;4.00;;;;;;;;;;5073750;28;20025;-82
2023/08/10 05:21:34;;;;;;;10.50;3.35;;;;;;;;;;5073412;28;20039;-82
2023/08/10 05:24:00;;;;;;;8.95;3.08;;;;;;;;;;5074605;28;20036;-82
2023/08/10 05:26:27;;;;;;;5.78;2.63;;;;;;;;;;5075127;28;20028;-82
2023/08/10 05:28:52;;;;;;;5.90;2.90;;;;;;;;;;5053592;28;20032;-81
2023/08/10 05:31:18;;;;;;;9.68;3.38;;;;;;;;;;5066993;28;20028;-83
2023/08/10 05:33:43;;;;;;;9.20;3.10;;;;;;;;;;5082243;28;20483;-80
2023/08/10 05:36:09;;;;;;;7.05;3.50;;;;;;;;;;5076173;28;20062;-83
2023/08/10 05:38:34;;;;;;;8.57;2.92;;;;;;;;;;5065402;28;20036;-83
2023/08/10 05:41:01;;;;;;;7.32;2.90;;;;;;;;;;5087333;28;20021;-85
2023/08/10 05:43:26;;;;;;;7.07;2.92;;;;;;;;;;5071286;28;20052;-84
2023/08/10 05:45:52;;;;;;;10.30;3.70;;;;;;;;;;5072681;28;20490;-84
2023/08/10 05:48:17;;;;;;;6.07;2.65;;;;;;;;;;5081370;28;20024;-84
2023/08/10 05:50:43;;;;;;;10.52;3.05;;;;;;;;;;5065644;28;20044;-84
2023/08/10 05:53:09;;;;;;;7.85;2.75;;;;;;;;;;5082232;28;20127;-84
2023/08/10 05:55:34;;;;;;;6.53;3.20;;;;;;;;;;5063935;28;20043;-85
2023/08/10 05:58:00;;;;;;;5.20;3.28;;;;;;;;;;5054902;28;20032;-84
2023/08/10 06:00:27;;;;;;;8.32;3.13;;;;;;;;;;5071208;28;20016;-84
2023/08/10 06:02:52;;;;;;;7.47;2.83;;;;;;;;;;5076822;28;20036;-85
2023/08/10 06:05:18;;;;;;;9.77;3.63;;;;;;;;;;5065021;28;20032;-84
2023/08/10 06:07:47;;;;;;;7.82;2.97;;;;;;;;;;5077124;28;20111;-84
2023/08/10 06:10:13;;;;;;;6.55;3.28;;;;;;;;;;5056464;28;20032;-84
2023/08/10 06:12:39;;;;;;;6.20;2.55;;;;;;;;;;5070495;28;20036;-83
2023/08/10 06:15:04;;;;;;;6.07;2.95;;;;;;;;;;5057964;28;20045;-84
2023/08/10 06:17:31;;;;;;;9.18;2.60;;;;;;;;;;5069164;28;20036;-85
2023/08/10 06:19:57;;;;;;;8.68;2.80;;;;;;;;;;5061045;28;20024;-85
2023/08/10 06:22:23;;;;;;;5.13;2.63;;;;;;;;;;5063882;28;20047;-84
2023/08/10 06:24:48;;;;;;;5.50;2.30;;;;;;;;;;5072077;28;20025;-84
2023/08/10 06:27:14;;;;;;;7.72;2.55;;;;;;;;;;5070555;28;20116;-84
2023/08/10 06:29:40;;;;;;;4.85;2.33;;;;;;;;;;5075359;28;20021;-83
2023/08/10 06:32:06;;;;;;;4.20;2.22;;;;;;;;;;5066217;28;20033;-84
2023/08/10 06:34:32;;;;;;;5.15;2.20;;;;;;;;;;5079999;28;20031;-84
2023/08/10 06:36:57;;;;;;;6.18;2.47;;;;;;;;;;5037196;28;20032;-84
2023/08/10 06:39:23;;;;;;;5.47;2.60;;;;;;;;;;5071491;28;20028;-84
2023/08/10 06:41:49;;;;;;;5.75;2.50;;;;;;;;;;5070111;28;20050;-84
2023/08/10 06:44:18;;;;;;;4.22;2.30;;;;;;;;;;5037578;28;20027;-84
2023/08/10 06:46:43;;;;;;;5.50;2.67;;;;;;;;;;5079318;28;20024;-84
2023/08/10 06:49:09;;;;;;;11.68;2.65;;;;;;;;;;5075621;28;20483;-83
2023/08/10 06:51:36;;;;;;;7.55;2.60;;;;;;;;;;5080231;28;20483;-85
2023/08/10 06:54:02;;;;;;;8.25;2.22;;;;;;;;;;5082295;28;20029;-84
2023/08/10 06:56:28;;;;;;;9.23;2.70;;;;;;;;;;5078863;28;20119;-84
2023/08/10 06:58:53;;;;;;;5.45;2.17;;;;;;;;;;5076551;28;20028;-85
2023/08/10 07:01:19;;;;;;;7.18;2.45;;;;;;;;;;5081282;28;20036;-84
2023/08/10 07:03:45;;;;;;;6.38;2.13;;;;;;;;;;5069857;28;20032;-85
2023/08/10 07:06:11;;;;;;;8.52;2.40;;;;;;;;;;5079069;28;20032;-84
2023/08/10 07:08:36;;;;;;;7.70;2.58;;;;;;;;;;5072902;28;20122;-84
2023/08/10 07:11:02;;;;;;;12.38;3.13;;;;;;;;;;5079155;28;20031;-84
2023/08/10 07:13:37;;;;;;;9.65;2.65;;;;;;;;;;5050305;28;20542;-86
2023/08/10 07:16:02;;;;;;;9.82;3.47;;;;;;;;;;5081117;28;20118;-84
2023/08/10 07:18:29;;;;;;;8.30;3.08;;;;;;;;;;5072221;28;20139;-85
2023/08/10 07:20:55;;;;;;;6.75;2.90;;;;;;;;;;5080246;28;20526;-85
2023/08/10 07:23:21;;;;;;;4.38;2.55;;;;;;;;;;5086264;28;20047;-83
2023/08/10 07:25:46;;;;;;;7.78;2.72;;;;;;;;;;5061130;28;20506;-84
2023/08/10 07:28:12;;;;;;;5.57;2.35;;;;;;;;;;5074401;28;20016;-85
2023/08/10 07:30:37;;;;;;;5.28;2.35;;;;;;;;;;5077787;28;20078;-85
2023/08/10 07:33:03;;;;;;;4.78;2.40;;;;;;;;;;5068436;28;20093;-85
2023/08/10 07:35:29;;;;;;;6.55;2.30;;;;;;;;;;5046889;28;20123;-85
2023/08/10 07:38:03;;;;;;;6.32;2.05;;;;;;;;;;5067269;28;20048;-85
2023/08/10 07:40:29;;;;;;;3.58;1.92;;;;;;;;;;5053094;28;20032;-85
2023/08/10 07:42:54;;;;;;;5.72;2.28;;;;;;;;;;5082126;28;20032;-85
2023/08/10 07:45:20;;;;;;;6.93;2.30;;;;;;;;;;5080734;28;20047;-86
2023/08/10 07:47:45;;;;;;;4.60;2.17;;;;;;;;;;5066148;28;20414;-85
2023/08/10 07:50:11;;;;;;;6.97;2.50;;;;;;;;;;5082660;28;20399;-84
2023/08/10 07:52:36;;;;;;;3.50;2.00;;;;;;;;;;5054840;28;20613;-86
2023/08/10 07:55:02;;;;;;;4.70;1.98;;;;;;;;;;5076304;28;20369;-86
2023/08/10 07:57:27;;;;;;;5.55;2.35;;;;;;;;;;5068593;28;20024;-85
2023/08/10 07:59:53;;;;;;;4.55;2.08;;;;;;;;;;5069564;28;20411;-85
2023/08/10 08:02:18;;;;;;;7.47;1.98;;;;;;;;;;5065119;28;20028;-85
2023/08/10 08:04:44;;;;;;;6.13;2.13;;;;;;;;;;5079414;28;20123;-84
2023/08/10 08:07:09;;;;;;;3.67;1.92;;;;;;;;;;5074335;28;20527;-84
2023/08/10 08:09:35;;;;;;;3.67;2.00;;;;;;;;;;5073587;28;20109;-83
2023/08/10 08:12:00;;;;;;;6.90;2.30;;;;;;;;;;5055724;28;20110;-83
2023/08/10 08:14:26;;;;;;;6.50;2.63;;;;;;;;;;5073117;28;20097;-84
2023/08/10 08:16:51;;;;;;;5.03;2.10;;;;;;;;;;5056226;28;20067;-85
2023/08/10 08:19:18;;;;;;;3.83;2.10;;;;;;;;;;5039548;28;20127;-84
2023/08/10 08:21:46;;;;;;;3.45;1.80;;;;;;;;;;5068676;28;20475;-85
2023/08/10 08:24:12;;;;;;;5.28;2.00;;;;;;;;;;5074076;28;20025;-85
2023/08/10 08:26:38;;;;;;;3.13;1.50;;;;;;;;;;5072187;28;20530;-85
2023/08/10 08:29:04;;;;;;;3.08;1.40;;;;;;;;;;5073257;28;20036;-85
2023/08/10 08:31:29;;;;;;;3.45;1.52;;;;;;;;;;5052315;28;20025;-86
2023/08/10 08:33:54;;;;;;;4.85;1.65;;;;;;;;;;5048095;28;20028;-85
2023/08/10 08:36:20;;;;;;;2.95;1.70;;;;;;;;;;5084765;28;20027;-86
2023/08/10 08:38:45;;;;;;;3.90;1.90;;;;;;;;;;5073033;28;20067;-86
2023/08/10 08:41:11;;;;;;;3.72;1.70;;;;;;;;;;5088010;28;20024;-86
2023/08/10 08:43:37;;;;;;;5.45;1.70;;;;;;;;;;5082398;28;20085;-86
2023/08/10 08:46:03;;;;;;;3.13;1.75;;;;;;;;;;5058896;28;20020;-86
2023/08/10 08:48:28;;;;;;;2.58;1.55;;;;;;;;;;5080541;28;20032;-85
2023/08/10 08:50:54;;;;;;;6.38;1.80;;;;;;;;;;5055263;28;20445;-85
2023/08/10 08:53:20;;;;;;;2.40;1.55;;;;;;;;;;5072510;28;20561;-85
2023/08/10 08:55:46;;;;;;;6.22;1.70;;;;;;;;;;5073302;28;20028;-86
2023/08/10 08:58:14;;;;;;;7.47;1.58;;;;;;;;;;5064780;28;20050;-84
2023/08/10 09:00:40;;;;;;;8.30;1.67;;;;;;;;;;5075171;28;20028;-84
2023/08/10 09:03:05;;;;;;;2.97;1.73;;;;;;;;;;5088918;28;20058;-84
2023/08/10 09:05:31;;;;;;;3.22;1.40;;;;;;;;;;5066162;28;20029;-84
2023/08/10 09:07:58;;;;;;;4.53;1.80;;;;;;;;;;5071312;28;20603;-85
2023/08/10 09:10:23;;;;;;;3.50;1.60;;;;;;;;;;5083904;28;20021;-84
2023/08/10 09:12:49;;;;;;;3.88;1.50;;;;;;;;;;5087982;28;20105;-84
2023/08/10 09:15:16;;;;;;;3.85;1.80;;;;;;;;;;5083042;28;20588;-84
2023/08/10 09:17:52;;;;;;;8.05;5.13;;;;;;;;;;5081572;28;20085;-84
2023/08/10 09:20:18;;;;;;;5.40;1.80;;;;;;;;;;5067543;28;20175;-84
2023/08/10 09:22:44;;;;;;;2.63;1.55;;;;;;;;;;5055522;28;20033;-85
2023/08/10 09:25:09;;;;;;;5.30;1.65;;;;;;;;;;5071784;28;20402;-85
2023/08/10 09:27:35;;;;;;;2.50;1.52;;;;;;;;;;5062492;28;20024;-85
2023/08/10 09:30:04;;;;;;;5.25;1.90;;;;;;;;;;5073089;28;20055;-85
2023/08/10 09:32:30;;;;;;;5.35;1.75;;;;;;;;;;5071826;28;20056;-84
2023/08/10 09:34:55;;;;;;;3.30;1.77;;;;;;;;;;5071069;28;20537;-85
2023/08/10 09:37:21;;;;;;;3.03;1.92;;;;;;;;;;5084495;28;20024;-85
2023/08/10 09:39:47;;;;;;;4.78;1.60;;;;;;;;;;5067499;28;20051;-85
2023/08/10 09:42:12;;;;;;;4.95;1.60;;;;;;;;;;5071521;28;20031;-85
2023/08/10 09:44:42;;;;;;;3.53;1.40;;;;;;;;;;5083899;28;20029;-84
2023/08/10 09:47:09;;;;;;;4.22;1.60;;;;;;;;;;5072112;28;20070;-85
2023/08/10 09:49:34;;;;;;;2.15;1.30;;;;;;;;;;5078373;28;20036;-84
2023/08/10 09:52:00;;;;;;;3.95;1.50;;;;;;;;;;5077221;28;20365;-85
2023/08/10 09:54:26;;;;;;;4.32;1.40;;;;;;;;;;5083801;28;20498;-85
2023/08/10 09:56:53;;;;;;;2.17;1.40;;;;;;;;;;5071337;28;20025;-85
2023/08/10 09:59:19;;;;;;;3.53;1.63;;;;;;;;;;5086161;28;20024;-85
2023/08/10 10:01:44;;;;;;;2.60;1.40;;;;;;;;;;5060135;28;20027;-85
2023/08/10 10:04:10;;;;;;;2.40;1.33;;;;;;;;;;5063237;28;20500;-85
2023/08/10 10:06:36;;;;;;;3.28;1.30;;;;;;;;;;5075706;28;20093;-85
2023/08/10 10:09:03;;;;;;;3.45;1.60;;;;;;;;;;5077065;28;20495;-86
2023/08/10 10:11:30;;;;;;;2.25;1.30;;;;;;;;;;5070452;28;20036;-86
2023/08/10 10:13:56;;;;;;;4.07;1.45;;;;;;;;;;5075891;28;20078;-85
2023/08/10 10:16:21;;;;;;;3.65;1.20;;;;;;;;;;5075923;28;20123;-85
2023/08/10 10:18:47;;;;;;;5.30;1.40;;;;;;;;;;5070927;28;20097;-84
2023/08/10 10:21:12;;;;;;;2.95;1.50;;;;;;;;;;5054479;28;20020;-84
2023/08/10 10:23:41;;;;;;;1.98;1.10;;;;;;;;;;5070825;28;20063;-84
2023/08/10 10:26:06;;;;;;;2.92;1.20;;;;;;;;;;5071813;28;20119;-86
2023/08/10 10:28:33;;;;;;;1.92;1.10;;;;;;;;;;5087529;28;20463;-84
2023/08/10 10:31:04;;;;;;;3.72;1.17;;;;;;;;;;5050706;28;20391;-85
2023/08/10 10:33:30;;;;;;;3.08;1.27;;;;;;;;;;5069997;28;20029;-85
2023/08/10 10:36:09;;;;;;;2.85;1.30;;;;;;;;;;5070122;28;20024;-85
2023/08/10 10:38:37;;;;;;;5.90;1.50;;;;;;;;;;5080001;28;20039;-84
2023/08/10 10:41:17;;;;;;;4.03;1.50;;;;;;;;;;5084224;28;20040;-84
2023/08/10 10:43:46;;;;;;;3.50;1.40;;;;;;;;;;5082379;28;20036;-86
2023/08/10 10:46:30;;;;;;;2.00;1.13;;;;;;;;;;5070096;28;20372;-85
2023/08/10 10:48:56;;;;;;;3.25;1.13;;;;;;;;;;5082383;28;20514;-85
2023/08/10 10:51:22;;;;;;;3.40;1.20;;;;;;;;;;5060209;28;20030;-85
2023/08/10 10:53:47;;;;;;;4.30;1.60;;;;;;;;;;5084349;28;20032;-85
2023/08/10 10:56:14;;;;;;;4.40;1.30;;;;;;;;;;5081543;28;20028;-85
2023/08/10 10:58:40;;;;;;;3.17;1.20;;;;;;;;;;5069728;28;20120;-86
2023/08/10 11:01:08;;;;;;;3.30;1.30;;;;;;;;;;5049963;28;20124;-85
2023/08/10 11:03:34;;;;;;;2.78;1.15;;;;;;;;;;5066233;28;20110;-85
2023/08/10 11:05:59;;;;;;;2.13;1.15;;;;;;;;;;5069589;28;20028;-85
2023/08/10 11:08:25;;;;;;;7.20;2.08;;;;;;;;;;5066135;28;20028;-85
2023/08/10 11:10:57;;;;;;;2.92;1.50;;;;;;;;;;5049955;28;20121;-85
2023/08/10 11:13:24;;;;;;;2.45;1.20;;;;;;;;;;5077068;28;20072;-86
2023/08/10 11:15:49;;;;;;;3.50;1.10;;;;;;;;;;5070023;28;20047;-85
2023/08/10 11:18:15;;;;;;;2.13;1.17;;;;;;;;;;5080332;28;20028;-84
2023/08/10 11:20:48;;;;;;;1.90;1.10;;;;;;;;;;5069816;28;20506;-85
2023/08/10 11:23:16;;;;;;;5.68;1.30;;;;;;;;;;5080692;28;20094;-85
2023/08/10 11:25:48;;;;;;;2.72;1.33;;;;;;;;;;5069622;28;20032;-85
2023/08/10 11:28:14;;;;;;;8.68;1.42;;;;;;;;;;5052880;28;20119;-85
2023/08/10 11:30:39;;;;;;;3.20;1.20;;;;;;;;;;5049750;28;20108;-85
2023/08/10 11:33:05;;;;;;;1.38;1.00;;;;;;;;;;5084499;28;20119;-85
2023/08/10 11:35:30;;;;;;;2.10;1.20;;;;;;;;;;5069934;28;20021;-86
2023/08/10 11:37:56;;;;;;;3.35;1.20;;;;;;;;;;5070717;28;20506;-84
2023/08/10 11:40:22;;;;;;;3.67;1.20;;;;;;;;;;5069482;28;20385;-84
2023/08/10 11:42:48;;;;;;;3.08;1.48;;;;;;;;;;5066757;28;20457;-84
2023/08/10 11:45:20;;;;;;;2.42;1.17;;;;;;;;;;5091150;28;20043;-84
2023/08/10 11:47:58;;;;;;;3.67;1.02;;;;;;;;;;5083756;28;20037;-85
2023/08/10 11:50:24;;;;;;;2.17;1.10;;;;;;;;;;5073630;28;20087;-84
2023/08/10 11:52:50;;;;;;;2.40;1.10;;;;;;;;;;5084478;28;20020;-85
2023/08/10 11:55:16;;;;;;;1.90;1.17;;;;;;;;;;5065063;28;20044;-84
2023/08/10 11:57:46;;;;;;;2.10;1.13;;;;;;;;;;5076803;28;20599;-84
2023/08/10 12:00:33;;;;;;;2.15;1.23;;;;;;;;;;5079181;28;20411;-84
2023/08/10 12:03:01;;;;;;;2.47;1.17;;;;;;;;;;5065732;28;20040;-84
2023/08/10 12:05:42;;;;;;;3.30;1.10;;;;;;;;;;5080673;28;20029;-85
2023/08/10 12:08:09;;;;;;;2.33;1.00;;;;;;;;;;5073356;28;20496;-84
2023/08/10 12:10:35;;;;;;;2.80;1.15;;;;;;;;;;5063154;28;20044;-84
2023/08/10 12:13:02;;;;;;;3.72;1.27;;;;;;;;;;5072168;28;20052;-84
2023/08/10 12:15:32;;;;;;;2.65;1.10;;;;;;;;;;5074573;28;20036;-84
2023/08/10 12:17:57;;;;;;;2.22;1.10;;;;;;;;;;5073821;28;20419;-84
2023/08/10 12:20:22;;;;;;;2.10;1.00;;;;;;;;;;5056502;28;20036;-84
2023/08/10 12:22:48;;;;;;;3.10;1.30;;;;;;;;;;5073049;28;20036;-84
2023/08/10 12:25:13;;;;;;;2.90;1.25;;;;;;;;;;5084256;28;20150;-85
2023/08/10 12:27:39;;;;;;;3.85;1.20;;;;;;;;;;5065614;28;20110;-86
2023/08/10 12:30:05;;;;;;;4.00;1.30;;;;;;;;;;5087047;28;20028;-85
2023/08/10 12:32:33;;;;;;;3.15;1.30;;;;;;;;;;5073205;28;20113;-85
2023/08/10 12:34:59;;;;;;;2.97;1.23;;;;;;;;;;5087346;28;20126;-85
2023/08/10 12:37:25;;;;;;;3.38;1.20;;;;;;;;;;5073243;28;20137;-85
2023/08/10 12:39:50;;;;;;;2.60;1.27;;;;;;;;;;5056027;28;20372;-85
2023/08/10 12:42:15;;;;;;;3.05;1.10;;;;;;;;;;5085997;28;20074;-85
2023/08/10 12:44:41;;;;;;;2.25;1.00;;;;;;;;;;5091279;28;20032;-85
2023/08/10 12:47:06;;;;;;;1.52;0.95;;;;;;;;;;5080489;28;20033;-85
2023/08/10 12:49:32;;;;;;;4.40;1.20;;;;;;;;;;5083233;28;20035;-83
2023/08/10 12:51:57;;;;;;;1.75;0.90;;;;;;;;;;5065616;28;20528;-85
2023/08/10 12:54:23;;;;;;;3.78;1.10;;;;;;;;;;5081170;28;20479;-84
2023/08/10 12:56:48;;;;;;;2.55;1.15;;;;;;;;;;5073637;28;20064;-85
2023/08/10 12:59:14;;;;;;;3.10;1.05;;;;;;;;;;5055478;28;20507;-84
2023/08/10 13:01:39;;;;;;;1.90;1.00;;;;;;;;;;5063937;28;20043;-84
2023/08/10 13:04:05;;;;;;;2.60;1.00;;;;;;;;;;5060799;28;20070;-84
2023/08/10 13:06:30;;;;;;;2.25;1.05;;;;;;;;;;5055705;28;20029;-84
2023/08/10 13:08:57;;;;;;;2.03;0.90;;;;;;;;;;5083178;28;20016;-84
2023/08/10 13:11:22;;;;;;;4.10;1.15;;;;;;;;;;5072743;28;20029;-84
2023/08/10 13:13:48;;;;;;;3.88;1.08;;;;;;;;;;5072530;28;20587;-84
2023/08/10 13:16:13;;;;;;;3.20;1.38;;;;;;;;;;5077261;28;20131;-84
2023/08/10 13:18:39;;;;;;;2.20;1.00;;;;;;;;;;5076954;28;20029;-84
2023/08/10 13:21:04;;;;;;;4.90;1.23;;;;;;;;;;5076575;28;20040;-85
2023/08/10 13:23:30;;;;;;;2.00;1.30;;;;;;;;;;5071865;28;20498;-84
2023/08/10 13:25:56;;;;;;;3.22;1.50;;;;;;;;;;5051794;28;20040;-84
2023/08/10 13:28:21;;;;;;;4.00;1.25;;;;;;;;;;5078497;28;20452;-83
2023/08/10 13:30:46;;;;;;;2.50;1.25;;;;;;;;;;5075364;28;20123;-83
2023/08/10 13:33:12;;;;;;;5.00;2.50;;;;;;;;;;5075700;28;20459;-84
2023/08/10 13:35:37;;;;;;;5.78;2.05;;;;;;;;;;5091331;28;20494;-84
2023/08/10 13:38:03;;;;;;;4.07;1.90;;;;;;;;;;5072617;28;20020;-84
2023/08/10 13:40:28;;;;;;;5.88;3.20;;;;;;;;;;5067845;28;20114;-84
2023/08/10 13:42:54;;;;;;;5.97;3.20;;;;;;;;;;5073458;28;20510;-84
2023/08/10 13:45:19;;;;;;;4.00;2.67;;;;;;;;;;5083974;28;20044;-85
2023/08/10 13:47:45;;;;;;;2.80;1.67;;;;;;;;;;5073249;28;20016;-84
2023/08/10 13:50:11;;;;;;;5.85;1.70;;;;;;;;;;5071978;28;20484;-85
2023/08/10 13:52:36;;;;;;;5.82;1.60;;;;;;;;;;5070997;28;20047;-85
2023/08/10 13:55:04;;;;;;;3.95;1.55;;;;;;;;;;5073490;28;20389;-85
2023/08/10 13:57:29;;;;;;;1.92;1.20;;;;;;;;;;5072124;28;20107;-85
2023/08/10 13:59:55;;;;;;;3.65;1.08;;;;;;;;;;5081504;28;20135;-85
2023/08/10 14:02:20;;;;;;;4.57;1.25;;;;;;;;;;5069577;28;20028;-85
2023/08/10 14:04:46;;;;;;;3.03;1.48;;;;;;;;;;5080322;28;20570;-84
2023/08/10 14:07:14;;;;;;;3.83;1.35;;;;;;;;;;5083529;28;20034;-85
2023/08/10 14:09:40;;;;;;;3.00;1.20;;;;;;;;;;5071455;28;20126;-85
2023/08/10 14:12:06;;;;;;;2.17;1.20;;;;;;;;;;5037628;28;20021;-85
2023/08/10 14:14:32;;;;;;;4.47;1.27;;;;;;;;;;5064755;28;20036;-85
2023/08/10 14:16:57;;;;;;;2.25;1.20;;;;;;;;;;5082136;28;20124;-85
2023/08/10 14:19:23;;;;;;;4.28;1.10;;;;;;;;;;5037655;28;20119;-85
2023/08/10 14:21:48;;;;;;;2.80;1.02;;;;;;;;;;5056674;28;20031;-85
2023/08/10 14:24:15;;;;;;;2.15;1.10;;;;;;;;;;5088737;28;20056;-85
2023/08/10 14:26:40;;;;;;;2.47;1.27;;;;;;;;;;5081625;28;20035;-85
2023/08/10 14:29:06;;;;;;;2.72;1.20;;;;;;;;;;5071731;28;20032;-85
2023/08/10 14:31:32;;;;;;;3.97;1.60;;;;;;;;;;5070645;28;20024;-85
2023/08/10 14:33:57;;;;;;;2.10;1.38;;;;;;;;;;5083190;28;20040;-85
2023/08/10 14:36:23;;;;;;;2.42;1.30;;;;;;;;;;5083764;28;20386;-84
2023/08/10 14:38:48;;;;;;;3.28;1.40;;;;;;;;;;5064252;28;20036;-85